createdAt,value
2023-01-11T00:01:31.457Z,97.82
2023-01-11T00:05:56.666Z,97.54
2023-01-11T00:10:04.875Z,97.40
2023-01-11T00:14:08.732Z,97.77
2023-01-11T00:18:12.964Z,97.64
2023-01-11T00:22:16.086Z,97.74
2023-01-11T00:26:23.936Z,97.81
2023-01-11T00:30:26.876Z,97.69
2023-01-11T00:34:29.899Z,97.64
2023-01-11T00:38:46.986Z,97.78
2023-01-11T00:43:13.995Z,97.70
2023-01-11T00:47:35.006Z,98.19
2023-01-11T00:51:37.993Z,97.96
2023-01-11T00:55:41.126Z,97.21
2023-01-11T00:59:45.411Z,97.86
2023-01-11T01:03:49.461Z,97.36
2023-01-11T01:07:54.361Z,97.62
2023-01-11T01:11:57.445Z,97.62
2023-01-11T01:16:06.217Z,97.51
2023-01-11T01:20:10.154Z,97.83
2023-01-11T01:24:13.355Z,97.93
2023-01-11T01:28:16.815Z,97.78
2023-01-11T01:32:21.193Z,97.80
2023-01-11T01:36:25.057Z,97.46
2023-01-11T01:40:32.335Z,97.67
2023-01-11T01:44:56.814Z,97.44
2023-01-11T01:49:06.050Z,97.71
2023-01-11T01:53:11.194Z,97.92
2023-01-11T01:57:17.798Z,97.79
2023-01-11T02:01:38.765Z,97.99
2023-01-11T02:05:43.880Z,97.60
2023-01-11T02:09:53.307Z,97.27
2023-01-11T02:13:57.648Z,97.23
2023-01-11T02:18:04.965Z,97.50
2023-01-11T02:22:55.927Z,97.21
2023-01-11T02:27:14.132Z,97.34
2023-01-11T02:31:29.986Z,97.49
2023-01-11T02:35:38.897Z,97.63
2023-01-11T02:39:51.960Z,97.08
2023-01-11T02:44:21.569Z,97.87
2023-01-11T02:48:32.135Z,97.70
2023-01-11T02:52:42.277Z,97.39
2023-01-11T02:56:49.200Z,97.79
2023-01-11T03:00:52.547Z,97.83
2023-01-11T03:05:02.984Z,97.10
2023-01-11T03:09:16.332Z,97.88
2023-01-11T03:13:25.981Z,97.75
2023-01-11T03:17:40.627Z,97.19
2023-01-11T03:22:01.442Z,96.95
2023-01-11T03:26:17.047Z,97.92
2023-01-11T03:30:25.809Z,97.81
2023-01-11T03:34:33.456Z,98.01
2023-01-11T03:38:42.831Z,97.82
2023-01-11T03:43:01.938Z,98.04
2023-01-11T03:47:09.121Z,97.75
2023-01-11T03:51:14.274Z,97.68
2023-01-11T03:55:24.470Z,97.17
2023-01-11T03:59:27.259Z,97.14
2023-01-11T04:03:32.694Z,96.98
2023-01-11T04:07:36.118Z,97.09
2023-01-11T04:11:40.902Z,97.29
2023-01-11T04:15:43.925Z,97.55
2023-01-11T04:19:47.633Z,97.18
2023-01-11T04:23:50.737Z,97.11
2023-01-11T04:27:56.577Z,96.76
2023-01-11T04:32:00.503Z,97.05
2023-01-11T04:36:06.988Z,96.62
2023-01-11T04:40:12.641Z,96.63
2023-01-11T04:44:18.746Z,96.51
2023-01-11T04:48:21.467Z,96.95
2023-01-11T04:52:30.653Z,96.19
2023-01-11T04:56:39.007Z,96.60
2023-01-11T05:00:55.173Z,96.00
2023-01-11T05:04:59.865Z,96.76
2023-01-11T05:09:03.821Z,95.90
2023-01-11T05:13:06.598Z,95.70
2023-01-11T05:17:21.615Z,96.25
2023-01-11T05:21:30.047Z,96.10
2023-01-11T05:25:37.875Z,96.70
2023-01-11T05:29:44.616Z,95.80
2023-01-11T05:33:50.112Z,96.41
2023-01-11T05:37:52.780Z,96.41
2023-01-11T05:41:56.171Z,96.91
2023-01-11T05:46:01.686Z,96.73
2023-01-11T05:50:07.827Z,96.44
2023-01-11T05:54:13.949Z,95.83
2023-01-11T05:58:19.593Z,95.75
2023-01-11T06:02:24.832Z,96.26
2023-01-11T06:06:31.654Z,95.55
2023-01-11T06:10:36.203Z,96.67
2023-01-11T06:14:39.601Z,96.30
2023-01-11T06:18:45.680Z,96.66
2023-01-11T06:22:52.012Z,95.82
2023-01-11T06:26:56.335Z,96.27
2023-01-11T06:31:02.404Z,95.83
2023-01-11T06:35:06.858Z,96.67
2023-01-11T06:39:12.495Z,96.59
2023-01-11T06:43:17.160Z,96.71
2023-01-11T06:47:19.936Z,96.81
2023-01-11T06:51:23.868Z,96.68
2023-01-11T06:55:32.808Z,97.30
2023-01-11T06:59:39.711Z,97.62
2023-01-11T07:03:49.666Z,97.34
2023-01-11T07:07:53.078Z,98.35
2023-01-11T07:12:05.312Z,98.43
2023-01-11T07:16:13.386Z,98.18
2023-01-11T07:20:25.361Z,97.88
2023-01-11T07:24:29.380Z,97.86
2023-01-11T07:28:34.429Z,98.31
2023-01-11T07:32:40.318Z,97.76
2023-01-11T07:36:44.929Z,98.51
2023-01-11T07:40:47.844Z,97.77
2023-01-11T07:44:52.508Z,98.28
2023-01-11T07:48:55.402Z,97.85
2023-01-11T07:53:00.671Z,97.64
2023-01-11T07:57:03.546Z,98.21
2023-01-11T08:01:08.060Z,98.28
2023-01-11T08:05:13.230Z,98.00
2023-01-11T08:09:16.092Z,97.57
2023-01-11T08:13:36.607Z,97.76
2023-01-11T08:17:44.306Z,97.49
2023-01-11T08:21:47.005Z,98.38
2023-01-11T08:25:49.703Z,97.95
2023-01-11T08:29:52.495Z,98.42
2023-01-11T08:33:57.320Z,97.34
2023-01-11T08:38:07.096Z,97.71
2023-01-11T08:42:11.072Z,98.18
2023-01-11T08:46:14.730Z,97.80
2023-01-11T08:50:22.923Z,97.53
2023-01-11T08:54:26.711Z,97.75
2023-01-11T08:58:39.952Z,97.69
2023-01-11T09:02:49.228Z,97.50
2023-01-11T09:06:55.731Z,97.69
2023-01-11T09:11:31.151Z,97.78
2023-01-11T09:15:38.586Z,97.93
2023-01-11T09:19:44.472Z,97.19
2023-01-11T09:23:52.681Z,97.63
2023-01-11T09:27:56.648Z,97.32
2023-01-11T09:32:09.149Z,98.12
2023-01-11T09:36:15.618Z,97.91
2023-01-11T09:40:24.297Z,97.55
2023-01-11T09:44:29.921Z,97.67
2023-01-11T09:48:37.389Z,97.90
2023-01-11T09:52:43.939Z,97.05
2023-01-11T10:06:33.136Z,96.88
2023-01-11T10:21:32.297Z,97.37
2023-01-11T10:25:54.490Z,96.34
2023-01-11T10:30:37.220Z,95.97
2023-01-11T10:35:18.026Z,96.92
2023-01-11T10:40:01.453Z,96.54
2023-01-11T10:44:31.923Z,95.58
2023-01-11T10:48:50.857Z,95.61
2023-01-11T10:53:36.845Z,96.67
2023-01-11T10:58:01.526Z,96.04
2023-01-11T11:02:37.072Z,95.78
2023-01-11T11:06:52.329Z,96.82
2023-01-11T11:11:16.294Z,96.33
2023-01-11T11:15:40.690Z,95.64
2023-01-11T11:19:54.277Z,96.25
2023-01-11T11:24:19.193Z,95.85
2023-01-11T11:28:34.953Z,95.70
2023-01-11T11:33:03.298Z,97.02
2023-01-11T11:37:59.732Z,96.23
2023-01-11T11:42:22.379Z,95.68
2023-01-11T11:46:32.295Z,95.22
2023-01-11T11:50:45.753Z,95.37
2023-01-11T11:55:00.982Z,94.20
2023-01-11T11:59:21.816Z,94.24
2023-01-11T12:03:40.441Z,93.65
2023-01-11T12:08:11.907Z,93.06
2023-01-11T12:12:30.926Z,93.79
2023-01-11T12:17:09.653Z,92.18
2023-01-11T12:21:58.068Z,90.65
2023-01-11T12:31:30.199Z,91.03
2023-01-11T12:41:43.361Z,90.58
2023-01-11T12:46:03.587Z,88.97
2023-01-11T13:00:12.744Z,88.20
2023-01-11T13:04:54.718Z,88.28
2023-01-11T13:09:01.790Z,87.10
2023-01-11T13:13:09.341Z,87.32
2023-01-11T13:17:21.578Z,86.77
2023-01-11T13:21:31.646Z,88.02
2023-01-11T13:25:36.537Z,86.59
2023-01-11T13:29:41.831Z,88.07
2023-01-11T13:33:48.991Z,85.61
2023-01-11T13:37:56.972Z,86.88
2023-01-11T13:42:03.503Z,86.10
2023-01-11T13:46:11.592Z,85.99
2023-01-11T13:50:20.427Z,85.96
2023-01-11T13:54:27.031Z,86.95
2023-01-11T13:58:36.799Z,85.65
2023-01-11T14:02:43.929Z,87.11
2023-01-11T14:07:02.449Z,87.96
2023-01-11T14:11:09.901Z,87.87
2023-01-11T14:15:20.834Z,90.25
2023-01-11T14:19:26.053Z,89.89
2023-01-11T14:23:36.970Z,90.72
2023-01-11T14:27:51.907Z,91.17
2023-01-11T14:32:12.839Z,90.89
2023-01-11T14:36:31.425Z,91.03
2023-01-11T14:40:43.209Z,91.41
2023-01-11T14:45:00.279Z,92.41
2023-01-11T14:49:12.729Z,90.14
2023-01-11T14:53:22.966Z,90.38
2023-01-11T14:57:42.580Z,89.16
2023-01-11T15:02:33.133Z,89.71
2023-01-11T15:06:53.342Z,89.17
2023-01-11T15:11:00.235Z,89.14
2023-01-11T15:15:07.789Z,90.23
2023-01-11T15:19:23.847Z,88.91
2023-01-11T15:23:27.101Z,90.00
2023-01-11T15:27:34.326Z,91.92
2023-01-11T15:31:50.634Z,91.00
2023-01-11T15:36:04.208Z,92.42
2023-01-11T15:40:15.839Z,93.45
2023-01-11T15:44:36.711Z,93.56
2023-01-11T15:48:54.199Z,93.93
2023-01-11T15:53:21.496Z,93.87
2023-01-11T15:57:46.452Z,94.54
2023-01-11T16:02:19.069Z,95.09
2023-01-11T16:06:29.233Z,95.07
2023-01-11T16:10:52.132Z,95.46
2023-01-11T16:15:08.311Z,95.62
2023-01-11T16:19:15.610Z,95.53
2023-01-11T16:23:22.089Z,94.86
2023-01-11T16:27:27.091Z,95.69
2023-01-11T16:31:55.821Z,95.54
2023-01-11T16:36:06.767Z,95.33
2023-01-11T16:40:14.006Z,96.10
2023-01-11T16:44:24.275Z,96.61
2023-01-11T16:48:30.100Z,96.58
2023-01-11T16:52:49.921Z,96.98
2023-01-11T16:56:53.438Z,96.69
2023-01-11T17:01:00.963Z,96.83
2023-01-11T17:05:19.112Z,97.33
2023-01-11T17:09:22.670Z,97.38
2023-01-11T17:13:54.360Z,97.32
2023-01-11T17:17:58.399Z,97.28
2023-01-11T17:22:05.503Z,97.75
2023-01-11T17:26:14.449Z,98.31
2023-01-11T17:30:20.258Z,97.45
2023-01-11T17:34:27.505Z,98.15
2023-01-11T17:38:33.099Z,97.23
2023-01-11T17:42:54.620Z,97.03
2023-01-11T17:46:57.594Z,97.02
2023-01-11T17:51:02.195Z,96.90
2023-01-11T17:55:15.672Z,96.86
2023-01-11T17:59:21.948Z,96.45
2023-01-11T18:03:24.893Z,96.39
2023-01-11T18:07:27.680Z,94.93
2023-01-11T18:11:33.969Z,93.99
2023-01-11T18:15:38.570Z,93.08
2023-01-11T18:19:43.479Z,94.94
2023-01-11T18:23:46.748Z,94.56
2023-01-11T18:27:51.858Z,94.55
2023-01-11T18:31:54.729Z,95.38
2023-01-11T18:35:59.872Z,95.04
2023-01-11T18:40:03.400Z,94.64
2023-01-11T18:44:09.187Z,94.92
2023-01-11T18:48:13.179Z,94.56
2023-01-11T18:52:17.426Z,95.12
2023-01-11T18:56:20.238Z,94.88
2023-01-11T19:00:25.001Z,94.33
2023-01-11T19:04:27.971Z,95.38
2023-01-11T19:08:32.422Z,95.50
2023-01-11T19:12:35.424Z,95.98
2023-01-11T19:16:39.831Z,96.02
2023-01-11T19:20:42.898Z,95.55
2023-01-11T19:24:45.710Z,95.80
2023-01-11T19:28:48.815Z,95.34
2023-01-11T19:32:54.488Z,95.62
2023-01-11T19:36:57.167Z,94.81
2023-01-11T19:41:04.964Z,95.21
2023-01-11T19:45:08.880Z,93.60
2023-01-11T19:49:15.684Z,95.26
2023-01-11T19:53:18.469Z,94.01
2023-01-11T19:57:21.772Z,93.78
2023-01-11T20:01:24.928Z,93.33
2023-01-11T20:05:33.736Z,94.06
2023-01-11T20:09:38.102Z,94.20
2023-01-11T20:13:41.742Z,94.26
2023-01-11T20:17:44.791Z,94.33
2023-01-11T20:21:49.443Z,94.25
2023-01-11T20:25:52.543Z,94.20
2023-01-11T20:29:56.548Z,94.38
2023-01-11T20:34:00.146Z,93.74
2023-01-11T20:38:04.893Z,94.24
2023-01-11T20:42:08.950Z,93.14
2023-01-11T20:46:11.941Z,93.37
2023-01-11T20:50:14.681Z,93.42
2023-01-11T20:54:18.938Z,92.81
2023-01-11T20:58:21.934Z,93.23
2023-01-11T21:02:24.767Z,93.64
2023-01-11T21:06:30.942Z,92.73
2023-01-11T21:10:35.102Z,92.94
2023-01-11T21:14:37.668Z,93.49
2023-01-11T21:18:43.488Z,92.73
2023-01-11T21:22:48.261Z,93.01
2023-01-11T21:26:52.493Z,92.84
2023-01-11T21:31:02.139Z,92.77
2023-01-11T21:35:14.098Z,92.71
2023-01-11T21:39:18.108Z,92.25
2023-01-11T21:43:22.367Z,93.07
2023-01-11T21:47:25.101Z,92.55
2023-01-11T21:51:29.831Z,92.86
2023-01-11T21:55:32.821Z,93.02
2023-01-11T21:59:36.888Z,93.20
2023-01-11T22:03:42.150Z,93.45
2023-01-11T22:07:44.936Z,93.26
2023-01-11T22:11:47.895Z,93.46
2023-01-11T22:15:52.456Z,93.23
2023-01-11T22:19:55.226Z,92.98
2023-01-11T22:24:01.199Z,92.66
2023-01-11T22:28:03.979Z,92.46
2023-01-11T22:32:08.106Z,91.54
2023-01-11T22:36:10.725Z,91.27
2023-01-11T22:40:15.392Z,90.93
2023-01-11T22:44:19.688Z,91.61
2023-01-11T22:48:32.509Z,91.49
2023-01-11T22:52:36.163Z,91.05
2023-01-11T22:56:38.943Z,92.80
2023-01-11T23:00:41.754Z,91.98
2023-01-11T23:04:45.939Z,90.94
2023-01-11T23:08:48.596Z,90.97
2023-01-11T23:13:14.889Z,91.53
2023-01-11T23:17:19.084Z,91.39
2023-01-11T23:21:24.384Z,90.49
2023-01-11T23:25:27.157Z,90.77
2023-01-11T23:29:30.038Z,91.57
2023-01-11T23:33:32.923Z,91.16
2023-01-11T23:37:37.055Z,90.96
2023-01-11T23:41:57.127Z,89.62
2023-01-11T23:46:24.286Z,90.27
2023-01-11T23:50:27.257Z,90.71
2023-01-11T23:54:32.724Z,91.25
2023-01-11T23:58:35.664Z,90.56
